createdAt,value
2017-10-01T00:00:02.000Z,1013.89
2017-10-01T00:01:02.005Z,1013.93
2017-10-01T00:02:02.011Z,1013.91
2017-10-01T00:03:02.014Z,1013.95
2017-10-01T00:04:02.022Z,1013.95
2017-10-01T00:05:02.023Z,1013.95
2017-10-01T00:06:02.030Z,1013.94
2017-10-01T00:07:02.030Z,1013.99
2017-10-01T00:08:02.039Z,1013.97
2017-10-01T00:09:02.038Z,1014.01
2017-10-01T00:10:02.048Z,1014.01
2017-10-01T00:11:02.053Z,1014.04
2017-10-01T00:12:02.055Z,1014.05
2017-10-01T00:13:02.061Z,1014.01
2017-10-01T00:14:02.064Z,1014.07
2017-10-01T00:15:02.167Z,1014.03
2017-10-01T00:16:02.072Z,1014.07
2017-10-01T00:17:02.083Z,1014.08
2017-10-01T00:18:02.078Z,1014.08
2017-10-01T00:19:02.084Z,1014.07
2017-10-01T00:20:02.087Z,1014.08
2017-10-01T00:21:02.091Z,1014.03
2017-10-01T00:22:02.095Z,1014.09
2017-10-01T00:23:02.099Z,1014.07
2017-10-01T00:24:02.103Z,1014.07
2017-10-01T00:25:02.108Z,1014.06
2017-10-01T00:26:02.118Z,1014.08
2017-10-01T00:27:02.125Z,1014.05
2017-10-01T00:28:02.125Z,1014.02
2017-10-01T00:29:02.130Z,1014.05
2017-10-01T00:30:02.133Z,1014.02
2017-10-01T00:31:02.130Z,1014.07
2017-10-01T00:32:02.142Z,1014.03
2017-10-01T00:33:02.142Z,1014.06
2017-10-01T00:34:02.152Z,1014.01
2017-10-01T00:35:02.151Z,1014.02
2017-10-01T00:36:02.152Z,1014.00
2017-10-01T00:37:02.176Z,1014.04
2017-10-01T00:38:02.162Z,1014.03
2017-10-01T00:39:02.164Z,1014.02
2017-10-01T00:40:02.171Z,1014.01
2017-10-01T00:41:02.176Z,1014.04
2017-10-01T00:42:02.184Z,1014.08
2017-10-01T00:43:02.184Z,1014.09
2017-10-01T00:44:02.191Z,1014.13
2017-10-01T00:45:02.198Z,1014.12
2017-10-01T00:46:02.193Z,1014.11
2017-10-01T00:47:02.202Z,1014.11
2017-10-01T00:48:02.201Z,1014.15
2017-10-01T00:49:02.210Z,1014.15
2017-10-01T00:50:02.212Z,1014.18
2017-10-01T00:51:02.215Z,1014.20
2017-10-01T00:52:02.230Z,1014.22
2017-10-01T00:53:02.224Z,1014.24
2017-10-01T00:54:02.224Z,1014.20
2017-10-01T00:55:02.230Z,1014.27
2017-10-01T00:56:02.233Z,1014.27
2017-10-01T00:57:02.241Z,1014.24
2017-10-01T00:58:02.243Z,1014.29
2017-10-01T00:59:02.245Z,1014.29
2017-10-01T01:00:02.253Z,1014.31
2017-10-01T01:01:02.260Z,1014.33
2017-10-01T01:02:02.260Z,1014.36
2017-10-01T01:03:02.266Z,1014.34
2017-10-01T01:04:02.273Z,1014.34
2017-10-01T01:05:02.276Z,1014.34
2017-10-01T01:06:02.273Z,1014.39
2017-10-01T01:07:02.278Z,1014.39
2017-10-01T01:08:02.285Z,1014.36
2017-10-01T01:09:02.290Z,1014.39
2017-10-01T01:10:02.296Z,1014.42
2017-10-01T01:11:02.294Z,1014.45
2017-10-01T01:12:02.305Z,1014.45
2017-10-01T01:13:02.304Z,1014.45
2017-10-01T01:14:02.314Z,1014.46
2017-10-01T01:15:02.313Z,1014.49
2017-10-01T01:16:02.315Z,1014.52
2017-10-01T01:17:02.327Z,1014.52
2017-10-01T01:18:02.321Z,1014.50
2017-10-01T01:19:02.330Z,1014.50
2017-10-01T01:20:02.328Z,1014.49
2017-10-01T01:21:02.342Z,1014.51
2017-10-01T01:22:02.345Z,1014.53
2017-10-01T01:23:02.346Z,1014.53
2017-10-01T01:24:02.394Z,1014.56
2017-10-01T01:25:02.354Z,1014.59
2017-10-01T01:26:02.356Z,1014.59
2017-10-01T01:27:02.362Z,1014.61
2017-10-01T01:28:02.363Z,1014.60
2017-10-01T01:29:02.365Z,1014.62
2017-10-01T01:30:02.372Z,1014.63
2017-10-01T01:31:02.374Z,1014.68
2017-10-01T01:32:02.381Z,1014.65
2017-10-01T01:33:02.385Z,1014.61
2017-10-01T01:34:02.390Z,1014.65
2017-10-01T01:35:02.390Z,1014.65
2017-10-01T01:36:02.401Z,1014.68
2017-10-01T01:37:02.407Z,1014.63
2017-10-01T01:38:02.404Z,1014.66
2017-10-01T01:39:02.406Z,1014.63
2017-10-01T01:40:02.412Z,1014.66
2017-10-01T01:41:02.423Z,1014.68
2017-10-01T01:42:02.422Z,1014.66
2017-10-01T01:43:02.423Z,1014.65
2017-10-01T01:44:02.425Z,1014.66
2017-10-01T01:45:02.431Z,1014.69
2017-10-01T01:46:02.435Z,1014.65
2017-10-01T01:47:02.442Z,1014.67
2017-10-01T01:48:02.440Z,1014.70
2017-10-01T01:49:02.450Z,1014.70
2017-10-01T01:50:02.448Z,1014.70
2017-10-01T01:51:02.454Z,1014.71
2017-10-01T01:52:02.459Z,1014.71
2017-10-01T01:53:02.466Z,1014.76
2017-10-01T01:54:02.465Z,1014.70
2017-10-01T01:55:02.481Z,1014.68
2017-10-01T01:56:02.477Z,1014.70
2017-10-01T01:57:02.483Z,1014.71
2017-10-01T01:58:02.482Z,1014.73
2017-10-01T01:59:02.485Z,1014.76
2017-10-01T02:00:02.492Z,1014.77
2017-10-01T02:01:02.493Z,1014.76
2017-10-01T02:02:02.500Z,1014.80
2017-10-01T02:03:02.500Z,1014.73
2017-10-01T02:04:02.509Z,1014.72
2017-10-01T02:05:02.515Z,1014.72
2017-10-01T02:06:02.520Z,1014.74
2017-10-01T02:07:02.520Z,1014.74
2017-10-01T02:08:02.519Z,1014.70
2017-10-01T02:09:02.525Z,1014.74
2017-10-01T02:10:02.534Z,1014.74
2017-10-01T02:11:02.535Z,1014.73
2017-10-01T02:12:02.547Z,1014.75
2017-10-01T02:13:02.543Z,1014.78
2017-10-01T02:14:02.544Z,1014.82
2017-10-01T02:15:02.551Z,1014.82
2017-10-01T02:16:02.551Z,1014.83
2017-10-01T02:17:02.556Z,1014.80
2017-10-01T02:18:02.563Z,1014.83
2017-10-01T02:19:02.561Z,1014.80
2017-10-01T02:20:02.570Z,1014.84
2017-10-01T02:21:02.570Z,1014.82
2017-10-01T02:22:02.577Z,1014.88
2017-10-01T02:23:02.576Z,1014.87
2017-10-01T02:24:02.581Z,1014.90
2017-10-01T02:25:02.594Z,1014.89
2017-10-01T02:26:02.593Z,1014.93
2017-10-01T02:27:02.595Z,1014.89
2017-10-01T02:28:02.616Z,1014.95
2017-10-01T02:29:02.606Z,1014.91
2017-10-01T02:30:02.606Z,1014.95
2017-10-01T02:31:02.612Z,1014.93
2017-10-01T02:32:02.617Z,1014.96
2017-10-01T02:33:02.623Z,1014.98
2017-10-01T02:34:02.621Z,1015.02
2017-10-01T02:35:02.626Z,1014.99
2017-10-01T02:36:02.635Z,1015.00
2017-10-01T02:37:02.639Z,1015.02
2017-10-01T02:38:02.635Z,1015.03
2017-10-01T02:39:02.640Z,1015.07
2017-10-01T02:40:02.644Z,1015.03
2017-10-01T02:41:02.654Z,1015.09
2017-10-01T02:42:02.659Z,1015.12
2017-10-01T02:43:02.656Z,1015.12
2017-10-01T02:44:02.661Z,1015.13
2017-10-01T02:45:02.663Z,1015.10
2017-10-01T02:46:02.666Z,1015.11
2017-10-01T02:47:02.669Z,1015.13
2017-10-01T02:48:02.675Z,1015.23
2017-10-01T02:49:02.681Z,1015.16
2017-10-01T02:50:02.690Z,1015.19
2017-10-01T02:51:02.685Z,1015.22
2017-10-01T02:52:02.691Z,1015.26
2017-10-01T02:53:02.696Z,1015.21
2017-10-01T02:54:02.699Z,1015.20
2017-10-01T02:55:02.708Z,1015.20
2017-10-01T02:56:02.705Z,1015.25
2017-10-01T02:57:02.714Z,1015.28
2017-10-01T02:58:02.715Z,1015.27
2017-10-01T02:59:02.715Z,1015.30
2017-10-01T03:00:02.725Z,1015.33
2017-10-01T03:01:02.723Z,1015.31
2017-10-01T03:02:02.733Z,1015.31
2017-10-01T03:03:02.733Z,1015.30
2017-10-01T03:04:02.740Z,1015.36
2017-10-01T03:05:02.746Z,1015.36
2017-10-01T03:06:02.748Z,1015.33
2017-10-01T03:07:02.746Z,1015.35
2017-10-01T03:08:02.750Z,1015.36
2017-10-01T03:09:02.756Z,1015.35
2017-10-01T03:10:02.759Z,1015.36
2017-10-01T03:11:02.762Z,1015.32
2017-10-01T03:12:02.767Z,1015.36
2017-10-01T03:13:02.776Z,1015.36
2017-10-01T03:14:02.771Z,1015.41
2017-10-01T03:15:02.777Z,1015.35
2017-10-01T03:16:02.781Z,1015.38
2017-10-01T03:17:02.788Z,1015.46
2017-10-01T03:18:02.784Z,1015.46
2017-10-01T03:19:02.798Z,1015.49
2017-10-01T03:20:02.791Z,1015.46
2017-10-01T03:21:02.794Z,1015.52
2017-10-01T03:22:02.801Z,1015.56
2017-10-01T03:23:02.806Z,1015.54
2017-10-01T03:24:02.807Z,1015.47
2017-10-01T03:25:02.810Z,1015.50
2017-10-01T03:26:02.813Z,1015.51
2017-10-01T03:27:02.816Z,1015.49
2017-10-01T03:28:02.819Z,1015.50
2017-10-01T03:29:02.827Z,1015.53
2017-10-01T03:30:02.828Z,1015.54
2017-10-01T03:31:02.837Z,1015.58
2017-10-01T03:32:02.834Z,1015.61
2017-10-01T03:33:02.835Z,1015.63
2017-10-01T03:34:02.846Z,1015.66
2017-10-01T03:35:02.842Z,1015.67
2017-10-01T03:36:02.848Z,1015.68
2017-10-01T03:37:02.853Z,1015.67
2017-10-01T03:38:02.853Z,1015.68
2017-10-01T03:39:02.857Z,1015.69
2017-10-01T03:40:02.861Z,1015.71
2017-10-01T03:41:02.865Z,1015.72
2017-10-01T03:42:02.868Z,1015.66
2017-10-01T03:43:02.872Z,1015.72
2017-10-01T03:44:02.880Z,1015.73
2017-10-01T03:45:02.881Z,1015.76
2017-10-01T03:46:02.883Z,1015.77
2017-10-01T03:47:02.885Z,1015.75
2017-10-01T03:48:02.888Z,1015.77
2017-10-01T03:49:02.895Z,1015.74
2017-10-01T03:50:02.894Z,1015.75
2017-10-01T03:51:02.894Z,1015.75
2017-10-01T03:52:02.908Z,1015.75
2017-10-01T03:53:02.905Z,1015.81
2017-10-01T03:54:02.908Z,1015.78
2017-10-01T03:55:02.907Z,1015.81
2017-10-01T03:56:02.914Z,1015.79
2017-10-01T03:57:02.921Z,1015.84
2017-10-01T03:58:02.920Z,1015.79
2017-10-01T03:59:02.921Z,1015.79
2017-10-01T04:00:02.934Z,1015.77
2017-10-01T04:01:02.934Z,1015.80
2017-10-01T04:02:02.936Z,1015.78
2017-10-01T04:03:02.938Z,1015.82
2017-10-01T04:04:02.939Z,1015.82
2017-10-01T04:05:02.939Z,1015.81
2017-10-01T04:06:02.942Z,1015.81
2017-10-01T04:07:02.949Z,1015.80
2017-10-01T04:08:02.955Z,1015.83
2017-10-01T04:09:02.955Z,1015.81
2017-10-01T04:10:02.962Z,1015.83
2017-10-01T04:11:02.962Z,1015.80
2017-10-01T04:12:02.973Z,1015.85
2017-10-01T04:13:02.975Z,1015.86
2017-10-01T04:14:02.975Z,1015.86
2017-10-01T04:15:02.975Z,1015.91
2017-10-01T04:16:02.980Z,1015.92
2017-10-01T04:17:02.988Z,1015.89
2017-10-01T04:18:02.985Z,1015.91
2017-10-01T04:19:02.994Z,1015.93
2017-10-01T04:20:02.992Z,1015.98
2017-10-01T04:21:03.000Z,1016.01
2017-10-01T04:22:02.999Z,1015.99
2017-10-01T04:23:03.009Z,1016.00
2017-10-01T04:24:03.012Z,1016.01
2017-10-01T04:25:03.010Z,1016.02
2017-10-01T04:26:03.013Z,1016.00
2017-10-01T04:27:03.022Z,1016.03
2017-10-01T04:28:03.018Z,1016.03
2017-10-01T04:29:03.026Z,1016.05
2017-10-01T04:30:03.024Z,1016.09
2017-10-01T04:31:03.032Z,1016.06
2017-10-01T04:32:03.040Z,1016.08
2017-10-01T04:33:03.035Z,1016.07
2017-10-01T04:34:03.041Z,1016.07
2017-10-01T04:35:03.044Z,1016.08
2017-10-01T04:36:03.043Z,1016.08
2017-10-01T04:37:03.052Z,1016.14
2017-10-01T04:38:03.052Z,1016.11
2017-10-01T04:39:03.056Z,1016.13
2017-10-01T04:40:03.062Z,1016.14
2017-10-01T04:41:03.064Z,1016.17
2017-10-01T04:42:03.086Z,1016.17
2017-10-01T04:43:03.069Z,1016.12
2017-10-01T04:44:03.074Z,1016.16
2017-10-01T04:45:03.075Z,1016.13
2017-10-01T04:46:03.082Z,1016.15
2017-10-01T04:47:03.086Z,1016.14
2017-10-01T04:48:03.084Z,1016.17
2017-10-01T04:49:03.087Z,1016.16
2017-10-01T04:50:03.095Z,1016.20
2017-10-01T04:51:03.095Z,1016.18
2017-10-01T04:52:03.097Z,1016.15
2017-10-01T04:53:03.103Z,1016.21
2017-10-01T04:54:03.110Z,1016.21
2017-10-01T04:55:03.116Z,1016.23
2017-10-01T04:56:03.109Z,1016.26
2017-10-01T04:57:03.116Z,1016.26
2017-10-01T04:58:03.114Z,1016.29
2017-10-01T04:59:03.127Z,1016.37
2017-10-01T05:00:03.122Z,1016.36
2017-10-01T05:01:03.130Z,1016.34
2017-10-01T05:02:03.137Z,1016.35
2017-10-01T05:03:03.138Z,1016.38
2017-10-01T05:04:03.147Z,1016.37
2017-10-01T05:05:03.141Z,1016.41
2017-10-01T05:06:03.144Z,1016.39
2017-10-01T05:07:03.163Z,1016.43
2017-10-01T05:08:03.155Z,1016.41
2017-10-01T05:09:03.159Z,1016.43
2017-10-01T05:10:03.167Z,1016.46
2017-10-01T05:11:03.162Z,1016.44
2017-10-01T05:12:03.172Z,1016.45
2017-10-01T05:13:03.179Z,1016.45
2017-10-01T05:14:03.172Z,1016.49
2017-10-01T05:15:03.182Z,1016.48
2017-10-01T05:16:03.180Z,1016.54
2017-10-01T05:17:03.190Z,1016.53
2017-10-01T05:18:03.186Z,1016.53
2017-10-01T05:19:03.192Z,1016.55
2017-10-01T05:20:03.195Z,1016.55
2017-10-01T05:21:03.197Z,1016.57
2017-10-01T05:22:03.200Z,1016.60
2017-10-01T05:23:03.206Z,1016.59
2017-10-01T05:24:03.205Z,1016.62
2017-10-01T05:25:03.230Z,1016.60
2017-10-01T05:26:03.216Z,1016.62
2017-10-01T05:27:03.219Z,1016.61
2017-10-01T05:28:03.225Z,1016.64
2017-10-01T05:29:03.229Z,1016.63
2017-10-01T05:30:03.226Z,1016.63
2017-10-01T05:31:03.231Z,1016.61
2017-10-01T05:32:03.231Z,1016.63
2017-10-01T05:33:03.241Z,1016.62
2017-10-01T05:34:03.246Z,1016.66
2017-10-01T05:35:03.248Z,1016.64
2017-10-01T05:36:03.250Z,1016.67
2017-10-01T05:37:03.260Z,1016.70
2017-10-01T05:38:03.256Z,1016.69
2017-10-01T05:39:03.259Z,1016.73
2017-10-01T05:40:03.271Z,1016.69
2017-10-01T05:41:03.268Z,1016.74
2017-10-01T05:42:03.267Z,1016.74
2017-10-01T05:43:03.278Z,1016.71
2017-10-01T05:44:03.276Z,1016.75
2017-10-01T05:45:03.283Z,1016.75
2017-10-01T05:46:03.284Z,1016.76
2017-10-01T05:47:03.297Z,1016.80
2017-10-01T05:48:03.292Z,1016.80
2017-10-01T05:49:03.295Z,1016.78
2017-10-01T05:50:03.296Z,1016.82
2017-10-01T05:51:03.300Z,1016.82
2017-10-01T05:52:03.306Z,1016.80
2017-10-01T05:53:03.319Z,1016.83
2017-10-01T05:54:03.311Z,1016.82
2017-10-01T05:55:03.312Z,1016.85
2017-10-01T05:56:03.332Z,1016.86
2017-10-01T05:57:03.325Z,1016.87
2017-10-01T05:58:03.327Z,1016.89
2017-10-01T05:59:03.328Z,1016.88
2017-10-01T06:00:03.334Z,1016.95
2017-10-01T06:01:03.341Z,1016.93
2017-10-01T06:02:03.348Z,1016.93
2017-10-01T06:03:03.345Z,1016.95
2017-10-01T06:04:03.346Z,1016.97
2017-10-01T06:05:03.352Z,1016.98
2017-10-01T06:06:03.353Z,1016.97
2017-10-01T06:07:03.353Z,1016.98
2017-10-01T06:08:03.361Z,1016.98
2017-10-01T06:09:03.381Z,1017.05
2017-10-01T06:10:03.369Z,1017.06
2017-10-01T06:11:03.377Z,1017.10
2017-10-01T06:12:03.382Z,1017.06
2017-10-01T06:13:03.377Z,1017.08
2017-10-01T06:14:03.381Z,1017.14
2017-10-01T06:15:03.386Z,1017.13
2017-10-01T06:16:03.388Z,1017.13
2017-10-01T06:17:03.397Z,1017.17
2017-10-01T06:18:03.395Z,1017.17
2017-10-01T06:19:03.417Z,1017.18
2017-10-01T06:20:03.404Z,1017.15
2017-10-01T06:21:03.411Z,1017.20
2017-10-01T06:22:03.413Z,1017.20
2017-10-01T06:23:03.413Z,1017.19
2017-10-01T06:24:03.421Z,1017.22
2017-10-01T06:25:03.429Z,1017.20
2017-10-01T06:26:03.436Z,1017.22
2017-10-01T06:27:03.426Z,1017.19
2017-10-01T06:28:03.429Z,1017.24
2017-10-01T06:29:03.437Z,1017.24
2017-10-01T06:30:03.447Z,1017.25
2017-10-01T06:31:03.442Z,1017.25
2017-10-01T06:32:03.443Z,1017.31
2017-10-01T06:33:03.445Z,1017.28
2017-10-01T06:34:03.456Z,1017.30
2017-10-01T06:35:03.455Z,1017.31
2017-10-01T06:36:03.464Z,1017.29
2017-10-01T06:37:03.470Z,1017.32
2017-10-01T06:38:03.462Z,1017.33
2017-10-01T06:39:03.464Z,1017.31
2017-10-01T06:40:03.471Z,1017.33
2017-10-01T06:41:03.472Z,1017.31
2017-10-01T06:42:03.480Z,1017.34
2017-10-01T06:43:03.482Z,1017.36
2017-10-01T06:44:03.485Z,1017.34
2017-10-01T06:45:03.491Z,1017.38
2017-10-01T06:46:03.491Z,1017.36
2017-10-01T06:47:03.494Z,1017.40
2017-10-01T06:48:03.498Z,1017.38
2017-10-01T06:49:03.504Z,1017.35
2017-10-01T06:50:03.511Z,1017.37
2017-10-01T06:51:03.507Z,1017.36
2017-10-01T06:52:03.514Z,1017.34
2017-10-01T06:53:03.519Z,1017.39
2017-10-01T06:54:03.524Z,1017.38
2017-10-01T06:55:03.525Z,1017.38
2017-10-01T06:56:03.525Z,1017.42
2017-10-01T06:57:03.534Z,1017.44
2017-10-01T06:58:03.534Z,1017.45
2017-10-01T06:59:03.543Z,1017.44
2017-10-01T07:00:03.547Z,1017.46
2017-10-01T07:01:03.544Z,1017.46
2017-10-01T07:02:03.551Z,1017.48
2017-10-01T07:03:03.549Z,1017.49
2017-10-01T07:04:03.555Z,1017.53
2017-10-01T07:05:03.560Z,1017.55
2017-10-01T07:06:03.562Z,1017.55
2017-10-01T07:07:03.565Z,1017.54
2017-10-01T07:08:03.569Z,1017.53
2017-10-01T07:09:03.573Z,1017.55
2017-10-01T07:10:03.576Z,1017.59
2017-10-01T07:11:03.582Z,1017.58
2017-10-01T07:12:03.584Z,1017.59
2017-10-01T07:13:03.584Z,1017.58
2017-10-01T07:14:03.598Z,1017.56
2017-10-01T07:15:03.609Z,1017.65
2017-10-01T07:16:03.597Z,1017.58
2017-10-01T07:17:03.606Z,1017.60
2017-10-01T07:18:03.604Z,1017.59
2017-10-01T07:19:03.612Z,1017.61
2017-10-01T07:20:03.610Z,1017.60
2017-10-01T07:21:03.619Z,1017.60
2017-10-01T07:22:03.621Z,1017.62
2017-10-01T07:23:03.624Z,1017.58
2017-10-01T07:24:03.623Z,1017.57
2017-10-01T07:25:03.639Z,1017.60
2017-10-01T07:26:03.632Z,1017.59
2017-10-01T07:27:03.637Z,1017.60
2017-10-01T07:28:03.644Z,1017.62
2017-10-01T07:29:03.645Z,1017.60
2017-10-01T07:30:03.646Z,1017.60
2017-10-01T07:31:03.652Z,1017.59
2017-10-01T07:32:03.652Z,1017.61
2017-10-01T07:33:03.658Z,1017.66
2017-10-01T07:34:03.664Z,1017.64
2017-10-01T07:35:03.664Z,1017.68
2017-10-01T07:36:03.680Z,1017.66
2017-10-01T07:37:03.671Z,1017.67
2017-10-01T07:38:03.683Z,1017.65
2017-10-01T07:39:03.687Z,1017.71
2017-10-01T07:40:03.689Z,1017.68
2017-10-01T07:41:03.694Z,1017.71
2017-10-01T07:42:03.695Z,1017.68
2017-10-01T07:43:03.695Z,1017.72
2017-10-01T07:44:03.706Z,1017.67
2017-10-01T07:45:03.704Z,1017.71
2017-10-01T07:46:03.720Z,1017.70
2017-10-01T07:47:03.714Z,1017.75
2017-10-01T07:48:03.726Z,1017.73
2017-10-01T07:49:03.724Z,1017.78
2017-10-01T07:50:03.722Z,1017.78
2017-10-01T07:51:03.730Z,1017.76
2017-10-01T07:52:03.731Z,1017.83
2017-10-01T07:53:03.734Z,1017.81
2017-10-01T07:54:03.739Z,1017.84
2017-10-01T07:55:03.745Z,1017.85
2017-10-01T07:56:03.747Z,1017.84
2017-10-01T07:57:03.753Z,1017.84
2017-10-01T07:58:03.764Z,1017.86
2017-10-01T07:59:03.768Z,1017.85
2017-10-01T08:00:03.761Z,1017.85
2017-10-01T08:01:03.775Z,1017.91
2017-10-01T08:02:03.774Z,1017.87
2017-10-01T08:03:03.775Z,1017.87
2017-10-01T08:04:03.783Z,1017.87
2017-10-01T08:05:03.781Z,1017.86
2017-10-01T08:06:03.789Z,1017.90
2017-10-01T08:07:03.791Z,1017.91
2017-10-01T08:08:03.803Z,1017.92
2017-10-01T08:09:03.891Z,1017.93
2017-10-01T08:10:03.898Z,1017.96
2017-10-01T08:11:03.806Z,1017.99
2017-10-01T08:12:03.814Z,1017.97
2017-10-01T08:13:03.828Z,1017.97
2017-10-01T08:14:03.825Z,1018.00
2017-10-01T08:15:03.826Z,1017.95
2017-10-01T08:16:03.826Z,1017.96
2017-10-01T08:17:04.308Z,1017.98
2017-10-01T08:18:03.837Z,1017.98
2017-10-01T08:19:03.842Z,1017.97
2017-10-01T08:20:03.844Z,1018.02
2017-10-01T08:21:03.850Z,1018.00
2017-10-01T08:22:03.854Z,1018.00
2017-10-01T08:23:03.856Z,1017.99
2017-10-01T08:24:03.867Z,1017.97
2017-10-01T08:25:03.873Z,1017.97
2017-10-01T08:26:03.874Z,1017.95
2017-10-01T08:27:03.877Z,1017.94
2017-10-01T08:28:03.880Z,1017.96
2017-10-01T08:29:03.883Z,1017.95
2017-10-01T08:30:03.905Z,1017.96
2017-10-01T08:31:03.891Z,1017.97
2017-10-01T08:32:03.897Z,1017.94
2017-10-01T08:33:03.899Z,1018.00
2017-10-01T08:34:03.903Z,1018.00
2017-10-01T08:35:03.911Z,1017.98
2017-10-01T08:36:03.914Z,1017.99
2017-10-01T08:37:03.919Z,1017.99
2017-10-01T08:38:03.924Z,1017.95
2017-10-01T08:39:03.933Z,1017.95
2017-10-01T08:40:03.934Z,1017.98
2017-10-01T08:41:03.937Z,1017.96
2017-10-01T08:42:03.942Z,1017.97
2017-10-01T08:43:03.944Z,1017.97
2017-10-01T08:44:03.951Z,1018.00
2017-10-01T08:47:36.353Z,1018.03
2017-10-01T08:48:36.040Z,1018.03
2017-10-01T08:49:36.049Z,1018.07
2017-10-01T08:50:36.052Z,1018.05
2017-10-01T08:51:36.056Z,1018.07
2017-10-01T08:52:36.066Z,1018.10
2017-10-01T08:53:36.065Z,1018.11
2017-10-01T08:54:36.077Z,1018.10
2017-10-01T08:55:36.076Z,1018.10
2017-10-01T08:56:36.114Z,1018.10
2017-10-01T08:57:36.084Z,1018.12
2017-10-01T08:58:36.093Z,1018.11
2017-10-01T08:59:36.093Z,1018.10
2017-10-01T09:00:36.098Z,1018.10
2017-10-01T09:01:36.105Z,1018.10
2017-10-01T09:02:36.108Z,1018.07
2017-10-01T09:03:36.108Z,1018.09
2017-10-01T09:04:36.115Z,1018.09
2017-10-01T09:05:36.122Z,1018.13
2017-10-01T09:06:36.131Z,1018.09
2017-10-01T09:07:36.130Z,1018.08
2017-10-01T09:08:36.149Z,1018.11
2017-10-01T09:09:36.143Z,1018.10
2017-10-01T09:10:36.144Z,1018.09
2017-10-01T09:11:36.148Z,1018.12
2017-10-01T09:12:36.152Z,1018.11
2017-10-01T09:13:36.160Z,1018.15
2017-10-01T09:14:36.161Z,1018.11
2017-10-01T09:15:36.174Z,1018.11
2017-10-01T09:16:36.369Z,1018.09
2017-10-01T09:17:36.475Z,1018.10
2017-10-01T09:18:36.374Z,1018.08
2017-10-01T09:19:36.662Z,1018.09
2017-10-01T09:20:36.482Z,1018.07
2017-10-01T09:21:37.271Z,1018.07
2017-10-01T09:23:36.532Z,1018.08
2017-10-01T09:24:39.872Z,1018.12
2017-10-01T09:25:36.279Z,1018.17
2017-10-01T09:26:36.500Z,1018.14
2017-10-01T09:27:36.373Z,1018.14
2017-10-01T09:28:36.230Z,1018.12
2017-10-01T09:29:36.234Z,1018.15
2017-10-01T09:30:36.243Z,1018.18
2017-10-01T09:31:36.242Z,1018.20
2017-10-01T09:32:36.249Z,1018.22
2017-10-01T09:33:36.256Z,1018.25
2017-10-01T09:34:36.266Z,1018.26
2017-10-01T09:35:36.285Z,1018.25
2017-10-01T09:36:36.274Z,1018.28
2017-10-01T09:37:36.273Z,1018.32
2017-10-01T09:38:36.286Z,1018.32
2017-10-01T09:39:36.289Z,1018.30
2017-10-01T09:40:36.291Z,1018.31
2017-10-01T09:41:36.293Z,1018.28
2017-10-01T09:42:36.298Z,1018.30
2017-10-01T09:43:36.305Z,1018.31
2017-10-01T09:44:36.308Z,1018.23
2017-10-01T09:45:36.315Z,1018.28
2017-10-01T09:46:36.320Z,1018.21
2017-10-01T09:47:36.327Z,1018.24
2017-10-01T09:48:36.337Z,1018.19
2017-10-01T09:49:36.352Z,1018.16
2017-10-01T09:50:36.341Z,1018.15
2017-10-01T09:51:36.346Z,1018.15
2017-10-01T09:52:36.352Z,1018.18
2017-10-01T09:53:36.355Z,1018.13
2017-10-01T09:54:36.365Z,1018.15
2017-10-01T09:55:36.375Z,1018.20
2017-10-01T09:56:36.374Z,1018.17
2017-10-01T09:57:36.384Z,1018.22
2017-10-01T09:58:36.384Z,1018.25
2017-10-01T09:59:36.389Z,1018.26
2017-10-01T10:00:36.401Z,1018.26
2017-10-01T10:01:36.398Z,1018.27
2017-10-01T10:02:36.403Z,1018.27
2017-10-01T10:03:36.410Z,1018.24
2017-10-01T10:04:36.422Z,1018.24
2017-10-01T10:05:36.427Z,1018.21
2017-10-01T10:06:36.427Z,1018.20
2017-10-01T10:07:36.432Z,1018.17
2017-10-01T10:08:36.436Z,1018.20
2017-10-01T10:09:36.443Z,1018.19
2017-10-01T10:10:36.450Z,1018.19
2017-10-01T10:11:36.451Z,1018.20
2017-10-01T10:12:36.455Z,1018.23
2017-10-01T10:13:36.466Z,1018.24
2017-10-01T10:14:36.464Z,1018.21
2017-10-01T10:15:36.482Z,1018.23
2017-10-01T10:16:36.475Z,1018.22
2017-10-01T10:17:36.484Z,1018.20
2017-10-01T10:18:36.493Z,1018.25
2017-10-01T10:19:36.492Z,1018.22
2017-10-01T10:20:36.502Z,1018.22
2017-10-01T10:21:36.502Z,1018.21
2017-10-01T10:22:36.515Z,1018.20
2017-10-01T10:23:36.514Z,1018.21
2017-10-01T10:24:36.525Z,1018.19
2017-10-01T10:25:36.529Z,1018.21
2017-10-01T10:26:36.534Z,1018.24
2017-10-01T10:27:36.535Z,1018.21
2017-10-01T10:32:40.596Z,1018.26
2017-10-01T10:33:41.810Z,1018.22
2017-10-01T10:34:40.587Z,1018.25
2017-10-01T10:35:40.584Z,1018.25
2017-10-01T10:36:40.593Z,1018.27
2017-10-01T10:37:40.595Z,1018.27
2017-10-01T10:38:40.602Z,1018.30
2017-10-01T10:39:40.610Z,1018.27
2017-10-01T10:40:40.614Z,1018.26
2017-10-01T10:41:40.619Z,1018.29
2017-10-01T10:42:40.655Z,1018.22
2017-10-01T10:43:40.634Z,1018.23
2017-10-01T10:44:40.634Z,1018.20
2017-10-01T10:45:40.642Z,1018.20
2017-10-01T10:46:40.671Z,1018.22
2017-10-01T10:47:40.655Z,1018.19
2017-10-01T10:48:41.087Z,1018.24
2017-10-01T10:49:40.665Z,1018.22
2017-10-01T10:50:40.676Z,1018.28
2017-10-01T10:51:40.684Z,1018.26
2017-10-01T10:52:40.755Z,1018.29
2017-10-01T10:53:40.689Z,1018.26
2017-10-01T10:54:40.693Z,1018.25
2017-10-01T10:55:40.701Z,1018.27
2017-10-01T10:56:40.711Z,1018.23
2017-10-01T10:57:40.714Z,1018.26
2017-10-01T10:58:40.719Z,1018.30
2017-10-01T10:59:40.726Z,1018.31
2017-10-01T11:00:40.733Z,1018.27
2017-10-01T11:01:40.900Z,1018.24
2017-10-01T11:02:40.751Z,1018.29
2017-10-01T11:03:40.755Z,1018.27
2017-10-01T11:04:40.758Z,1018.26
2017-10-01T11:05:40.770Z,1018.24
2017-10-01T11:06:40.774Z,1018.21
2017-10-01T11:07:40.790Z,1018.23
2017-10-01T11:08:40.790Z,1018.17
2017-10-01T11:09:40.793Z,1018.16
2017-10-01T11:10:40.803Z,1018.20
2017-10-01T11:11:40.806Z,1018.21
2017-10-01T11:12:40.819Z,1018.23
2017-10-01T11:13:40.826Z,1018.22
2017-10-01T11:15:40.832Z,1018.23
2017-10-01T11:16:40.845Z,1018.22
2017-10-01T11:17:40.850Z,1018.23
2017-10-01T11:18:40.868Z,1018.24
2017-10-01T11:19:40.861Z,1018.28
2017-10-01T11:20:40.868Z,1018.21
2017-10-01T11:21:40.873Z,1018.28
2017-10-01T11:22:40.888Z,1018.23
2017-10-01T11:23:40.890Z,1018.23
2017-10-01T11:24:40.892Z,1018.25
2017-10-01T11:25:40.902Z,1018.23
2017-10-01T11:26:40.909Z,1018.21
2017-10-01T11:27:40.912Z,1018.24
2017-10-01T11:28:40.917Z,1018.21
2017-10-01T11:29:40.936Z,1018.18
2017-10-01T11:30:40.940Z,1018.20
2017-10-01T11:31:40.943Z,1018.14
2017-10-01T11:32:40.947Z,1018.16
2017-10-01T11:33:40.955Z,1018.13
2017-10-01T11:34:40.965Z,1018.11
2017-10-01T11:35:40.968Z,1018.13
2017-10-01T11:36:40.978Z,1018.08
2017-10-01T11:37:40.982Z,1018.09
2017-10-01T11:38:40.992Z,1018.09
2017-10-01T11:39:40.993Z,1018.04
2017-10-01T11:40:41.004Z,1018.08
2017-10-01T11:41:41.014Z,1018.06
2017-10-01T11:42:41.017Z,1018.07
2017-10-01T11:43:41.024Z,1018.10
2017-10-01T11:44:41.028Z,1018.05
2017-10-01T11:45:41.033Z,1018.08
2017-10-01T11:46:41.041Z,1018.09
2017-10-01T11:47:41.055Z,1018.07
2017-10-01T11:48:41.054Z,1018.09
2017-10-01T11:49:41.066Z,1018.06
2017-10-01T11:50:41.076Z,1018.07
2017-10-01T11:51:41.074Z,1018.05
2017-10-01T11:52:41.086Z,1018.09
2017-10-01T11:53:41.090Z,1018.06
2017-10-01T11:54:41.094Z,1018.07
2017-10-01T11:55:41.101Z,1018.05
2017-10-01T11:56:41.113Z,1018.03
2017-10-01T11:57:41.116Z,1018.04
2017-10-01T11:58:41.123Z,1018.04
2017-10-01T11:59:41.124Z,1018.01
2017-10-01T12:00:41.138Z,1018.02
2017-10-01T12:01:41.141Z,1018.05
2017-10-01T12:02:41.151Z,1018.05
2017-10-01T12:03:41.155Z,1018.01
2017-10-01T12:04:41.167Z,1018.09
2017-10-01T12:05:41.164Z,1018.07
2017-10-01T12:06:41.168Z,1018.07
2017-10-01T12:07:41.176Z,1018.09
2017-10-01T12:08:41.184Z,1018.05
2017-10-01T12:09:41.190Z,1018.03
2017-10-01T12:10:41.199Z,1018.00
2017-10-01T12:11:41.201Z,1018.02
2017-10-01T12:12:41.209Z,1017.97
2017-10-01T12:13:41.214Z,1017.95